sensor_id;sensor_type;location;lat;lon;timestamp;temperature;humidity
70475;DHT22;57944;48.722;9.316;2023-01-16T00:01:20;0.70;99.90
70475;DHT22;57944;48.722;9.316;2023-01-16T00:03:53;0.50;99.90
70475;DHT22;57944;48.722;9.316;2023-01-16T00:06:24;0.50;99.90
70475;DHT22;57944;48.722;9.316;2023-01-16T00:08:54;0.70;99.90
70475;DHT22;57944;48.722;9.316;2023-01-16T00:11:24;0.80;99.90
70475;DHT22;57944;48.722;9.316;2023-01-16T00:13:54;0.80;99.90
70475;DHT22;57944;48.722;9.316;2023-01-16T00:16:25;0.90;99.90
70475;DHT22;57944;48.722;9.316;2023-01-16T00:18:58;0.80;99.90
70475;DHT22;57944;48.722;9.316;2023-01-16T00:21:28;0.70;99.90
70475;DHT22;57944;48.722;9.316;2023-01-16T00:23:59;0.60;99.90
70475;DHT22;57944;48.722;9.316;2023-01-16T00:26:29;0.50;99.90
70475;DHT22;57944;48.722;9.316;2023-01-16T00:28:59;0.50;99.90
70475;DHT22;57944;48.722;9.316;2023-01-16T00:31:29;0.50;99.90
70475;DHT22;57944;48.722;9.316;2023-01-16T00:34:02;0.40;99.90
70475;DHT22;57944;48.722;9.316;2023-01-16T00:36:32;0.40;99.90
70475;DHT22;57944;48.722;9.316;2023-01-16T00:39:02;0.50;99.90
70475;DHT22;57944;48.722;9.316;2023-01-16T00:41:32;0.60;99.90
70475;DHT22;57944;48.722;9.316;2023-01-16T00:44:03;0.50;99.90
70475;DHT22;57944;48.722;9.316;2023-01-16T00:46:33;0.40;99.90
70475;DHT22;57944;48.722;9.316;2023-01-16T00:49:06;0.30;99.90
70475;DHT22;57944;48.722;9.316;2023-01-16T00:51:36;0.30;99.90
70475;DHT22;57944;48.722;9.316;2023-01-16T00:54:06;0.40;99.90
70475;DHT22;57944;48.722;9.316;2023-01-16T00:56:36;0.60;99.90
70475;DHT22;57944;48.722;9.316;2023-01-16T00:59:06;0.70;99.90
70475;DHT22;57944;48.722;9.316;2023-01-16T01:01:36;0.70;99.90
70475;DHT22;57944;48.722;9.316;2023-01-16T01:04:09;0.70;99.90
70475;DHT22;57944;48.722;9.316;2023-01-16T01:06:40;0.70;99.90
70475;DHT22;57944;48.722;9.316;2023-01-16T01:09:10;0.70;99.90
70475;DHT22;57944;48.722;9.316;2023-01-16T01:11:40;0.60;99.90
70475;DHT22;57944;48.722;9.316;2023-01-16T01:14:10;0.60;99.90
70475;DHT22;57944;48.722;9.316;2023-01-16T01:16:40;0.60;99.90
70475;DHT22;57944;48.722;9.316;2023-01-16T01:19:13;0.60;99.90
70475;DHT22;57944;48.722;9.316;2023-01-16T01:21:43;0.70;99.90
70475;DHT22;57944;48.722;9.316;2023-01-16T01:24:13;0.80;99.90
70475;DHT22;57944;48.722;9.316;2023-01-16T01:26:44;1.10;99.90
70475;DHT22;57944;48.722;9.316;2023-01-16T01:29:14;1.20;99.90
70475;DHT22;57944;48.722;9.316;2023-01-16T01:31:44;1.40;99.90
70475;DHT22;57944;48.722;9.316;2023-01-16T01:34:16;1.50;99.90
70475;DHT22;57944;48.722;9.316;2023-01-16T01:36:46;1.50;99.90
70475;DHT22;57944;48.722;9.316;2023-01-16T01:39:16;1.50;99.90
70475;DHT22;57944;48.722;9.316;2023-01-16T01:41:46;1.50;99.90
70475;DHT22;57944;48.722;9.316;2023-01-16T01:44:44;1.40;99.90
70475;DHT22;57944;48.722;9.316;2023-01-16T01:47:20;1.60;99.90
70475;DHT22;57944;48.722;9.316;2023-01-16T01:50:00;1.60;99.90
70475;DHT22;57944;48.722;9.316;2023-01-16T01:52:33;1.60;99.90
70475;DHT22;57944;48.722;9.316;2023-01-16T01:55:05;1.60;99.90
70475;DHT22;57944;48.722;9.316;2023-01-16T01:57:41;1.60;99.90
70475;DHT22;57944;48.722;9.316;2023-01-16T02:00:16;1.50;99.90
70475;DHT22;57944;48.722;9.316;2023-01-16T02:02:52;1.50;99.90
70475;DHT22;57944;48.722;9.316;2023-01-16T02:05:34;1.30;99.90
70475;DHT22;57944;48.722;9.316;2023-01-16T02:08:13;1.20;99.90
70475;DHT22;57944;48.722;9.316;2023-01-16T02:10:49;1.00;99.90
70475;DHT22;57944;48.722;9.316;2023-01-16T02:13:21;0.80;99.90
70475;DHT22;57944;48.722;9.316;2023-01-16T02:15:52;0.50;99.90
70475;DHT22;57944;48.722;9.316;2023-01-16T02:18:36;0.50;99.90
70475;DHT22;57944;48.722;9.316;2023-01-16T02:21:38;0.30;99.90
70475;DHT22;57944;48.722;9.316;2023-01-16T02:24:55;0.50;99.90
70475;DHT22;57944;48.722;9.316;2023-01-16T02:28:25;0.60;99.90
70475;DHT22;57944;48.722;9.316;2023-01-16T02:31:26;0.70;99.90
70475;DHT22;57944;48.722;9.316;2023-01-16T02:34:16;0.70;99.90
70475;DHT22;57944;48.722;9.316;2023-01-16T02:37:03;0.60;99.90
70475;DHT22;57944;48.722;9.316;2023-01-16T02:39:45;0.60;99.90
70475;DHT22;57944;48.722;9.316;2023-01-16T02:42:28;0.70;99.90
70475;DHT22;57944;48.722;9.316;2023-01-16T02:45:09;0.90;99.90
70475;DHT22;57944;48.722;9.316;2023-01-16T02:47:55;0.90;99.90
70475;DHT22;57944;48.722;9.316;2023-01-16T02:50:38;0.90;99.90
70475;DHT22;57944;48.722;9.316;2023-01-16T02:53:17;1.10;99.90
70475;DHT22;57944;48.722;9.316;2023-01-16T02:55:54;1.10;99.90
70475;DHT22;57944;48.722;9.316;2023-01-16T02:58:31;1.00;99.90
70475;DHT22;57944;48.722;9.316;2023-01-16T03:01:06;0.90;99.90
70475;DHT22;57944;48.722;9.316;2023-01-16T03:03:45;1.00;99.90
70475;DHT22;57944;48.722;9.316;2023-01-16T03:06:30;1.00;99.90
70475;DHT22;57944;48.722;9.316;2023-01-16T03:09:24;1.00;99.90
70475;DHT22;57944;48.722;9.316;2023-01-16T03:12:17;1.10;99.90
70475;DHT22;57944;48.722;9.316;2023-01-16T03:15:04;1.10;99.90
70475;DHT22;57944;48.722;9.316;2023-01-16T03:17:51;1.00;99.90
70475;DHT22;57944;48.722;9.316;2023-01-16T03:20:47;0.90;99.90
70475;DHT22;57944;48.722;9.316;2023-01-16T03:23:30;1.00;99.90
70475;DHT22;57944;48.722;9.316;2023-01-16T03:26:14;0.90;99.90
70475;DHT22;57944;48.722;9.316;2023-01-16T03:28:58;0.80;99.90
70475;DHT22;57944;48.722;9.316;2023-01-16T03:31:41;0.70;99.90
70475;DHT22;57944;48.722;9.316;2023-01-16T03:34:21;0.60;99.90
70475;DHT22;57944;48.722;9.316;2023-01-16T03:37:05;0.90;99.90
70475;DHT22;57944;48.722;9.316;2023-01-16T03:39:42;0.70;99.90
70475;DHT22;57944;48.722;9.316;2023-01-16T03:42:19;0.70;99.90
70475;DHT22;57944;48.722;9.316;2023-01-16T03:44:56;0.60;99.90
70475;DHT22;57944;48.722;9.316;2023-01-16T03:47:38;0.50;99.90
70475;DHT22;57944;48.722;9.316;2023-01-16T03:50:12;0.30;99.90
70475;DHT22;57944;48.722;9.316;2023-01-16T03:52:52;0.50;99.90
70475;DHT22;57944;48.722;9.316;2023-01-16T03:55:31;0.60;99.90
70475;DHT22;57944;48.722;9.316;2023-01-16T03:58:14;0.50;99.90
70475;DHT22;57944;48.722;9.316;2023-01-16T04:00:58;0.60;99.90
70475;DHT22;57944;48.722;9.316;2023-01-16T04:03:40;0.80;99.90
70475;DHT22;57944;48.722;9.316;2023-01-16T04:06:20;0.80;99.90
70475;DHT22;57944;48.722;9.316;2023-01-16T04:09:05;0.60;99.90
70475;DHT22;57944;48.722;9.316;2023-01-16T04:11:40;0.20;99.90
70475;DHT22;57944;48.722;9.316;2023-01-16T04:14:12;0.20;99.90
70475;DHT22;57944;48.722;9.316;2023-01-16T04:16:44;0.30;99.90
70475;DHT22;57944;48.722;9.316;2023-01-16T04:19:15;0.00;99.90
70475;DHT22;57944;48.722;9.316;2023-01-16T04:21:47;-0.10;99.90
70475;DHT22;57944;48.722;9.316;2023-01-16T04:24:20;-0.20;99.90
70475;DHT22;57944;48.722;9.316;2023-01-16T04:26:50;-0.40;99.90
70475;DHT22;57944;48.722;9.316;2023-01-16T04:29:20;-0.40;99.90
70475;DHT22;57944;48.722;9.316;2023-01-16T04:31:51;-0.60;99.90
70475;DHT22;57944;48.722;9.316;2023-01-16T04:34:21;-0.50;99.90
70475;DHT22;57944;48.722;9.316;2023-01-16T04:36:51;-0.40;99.90
70475;DHT22;57944;48.722;9.316;2023-01-16T04:39:23;-0.40;99.90
70475;DHT22;57944;48.722;9.316;2023-01-16T04:41:53;-0.30;99.90
70475;DHT22;57944;48.722;9.316;2023-01-16T04:44:24;-0.40;99.90
70475;DHT22;57944;48.722;9.316;2023-01-16T04:46:57;-0.50;99.90
70475;DHT22;57944;48.722;9.316;2023-01-16T04:49:27;-0.50;99.90
70475;DHT22;57944;48.722;9.316;2023-01-16T04:51:58;-0.30;99.90
70475;DHT22;57944;48.722;9.316;2023-01-16T04:54:30;-0.40;99.90
70475;DHT22;57944;48.722;9.316;2023-01-16T04:57:01;-0.40;99.90
70475;DHT22;57944;48.722;9.316;2023-01-16T04:59:31;-0.30;99.90
70475;DHT22;57944;48.722;9.316;2023-01-16T05:02:01;0.00;99.90
70475;DHT22;57944;48.722;9.316;2023-01-16T05:04:31;0.30;99.90
70475;DHT22;57944;48.722;9.316;2023-01-16T05:07:01;0.40;99.90
70475;DHT22;57944;48.722;9.316;2023-01-16T05:09:34;0.40;99.90
70475;DHT22;57944;48.722;9.316;2023-01-16T05:12:05;0.30;99.90
70475;DHT22;57944;48.722;9.316;2023-01-16T05:14:35;0.50;99.90
70475;DHT22;57944;48.722;9.316;2023-01-16T05:17:05;0.30;99.90
70475;DHT22;57944;48.722;9.316;2023-01-16T05:19:35;0.00;99.90
70475;DHT22;57944;48.722;9.316;2023-01-16T05:22:05;-0.20;99.90
70475;DHT22;57944;48.722;9.316;2023-01-16T05:24:38;-0.50;99.90
70475;DHT22;57944;48.722;9.316;2023-01-16T05:27:08;-0.30;99.90
70475;DHT22;57944;48.722;9.316;2023-01-16T05:29:38;-0.20;99.90
70475;DHT22;57944;48.722;9.316;2023-01-16T05:32:08;0.00;99.90
70475;DHT22;57944;48.722;9.316;2023-01-16T05:34:38;0.10;99.90
70475;DHT22;57944;48.722;9.316;2023-01-16T05:37:08;0.20;99.90
70475;DHT22;57944;48.722;9.316;2023-01-16T05:39:41;0.60;99.90
70475;DHT22;57944;48.722;9.316;2023-01-16T05:42:13;0.70;99.90
70475;DHT22;57944;48.722;9.316;2023-01-16T05:44:52;0.70;99.90
70475;DHT22;57944;48.722;9.316;2023-01-16T05:47:22;0.80;99.90
70475;DHT22;57944;48.722;9.316;2023-01-16T05:49:52;0.90;99.90
70475;DHT22;57944;48.722;9.316;2023-01-16T05:52:25;0.90;99.90
70475;DHT22;57944;48.722;9.316;2023-01-16T05:54:58;0.80;99.90
70475;DHT22;57944;48.722;9.316;2023-01-16T05:57:28;0.80;99.90
70475;DHT22;57944;48.722;9.316;2023-01-16T05:59:58;0.90;99.90
70475;DHT22;57944;48.722;9.316;2023-01-16T06:02:30;0.80;99.90
70475;DHT22;57944;48.722;9.316;2023-01-16T06:05:00;0.80;99.90
70475;DHT22;57944;48.722;9.316;2023-01-16T06:07:30;0.90;99.90
70475;DHT22;57944;48.722;9.316;2023-01-16T06:10:04;0.90;99.90
70475;DHT22;57944;48.722;9.316;2023-01-16T06:12:34;1.00;99.90
70475;DHT22;57944;48.722;9.316;2023-01-16T06:15:05;1.00;99.90
70475;DHT22;57944;48.722;9.316;2023-01-16T06:17:36;1.10;99.90
70475;DHT22;57944;48.722;9.316;2023-01-16T06:20:08;1.20;99.90
70475;DHT22;57944;48.722;9.316;2023-01-16T06:22:41;1.20;99.90
70475;DHT22;57944;48.722;9.316;2023-01-16T06:25:16;1.20;99.90
70475;DHT22;57944;48.722;9.316;2023-01-16T06:27:49;1.20;99.90
70475;DHT22;57944;48.722;9.316;2023-01-16T06:30:21;1.20;99.90
70475;DHT22;57944;48.722;9.316;2023-01-16T06:32:52;1.10;99.90
70475;DHT22;57944;48.722;9.316;2023-01-16T06:35:22;1.10;99.90
70475;DHT22;57944;48.722;9.316;2023-01-16T06:37:52;1.10;99.90
70475;DHT22;57944;48.722;9.316;2023-01-16T06:40:25;1.10;99.90
70475;DHT22;57944;48.722;9.316;2023-01-16T06:42:55;1.10;99.90
70475;DHT22;57944;48.722;9.316;2023-01-16T06:45:25;1.10;99.90
70475;DHT22;57944;48.722;9.316;2023-01-16T06:47:55;1.20;99.90
70475;DHT22;57944;48.722;9.316;2023-01-16T06:50:25;1.20;99.90
70475;DHT22;57944;48.722;9.316;2023-01-16T06:52:55;1.20;99.90
70475;DHT22;57944;48.722;9.316;2023-01-16T06:55:28;1.20;99.90
70475;DHT22;57944;48.722;9.316;2023-01-16T06:57:58;1.30;99.90
70475;DHT22;57944;48.722;9.316;2023-01-16T07:00:29;1.40;99.90
70475;DHT22;57944;48.722;9.316;2023-01-16T07:03:00;1.50;99.90
70475;DHT22;57944;48.722;9.316;2023-01-16T07:05:31;1.50;99.90
70475;DHT22;57944;48.722;9.316;2023-01-16T07:08:01;1.60;99.90
70475;DHT22;57944;48.722;9.316;2023-01-16T07:10:35;1.80;99.90
70475;DHT22;57944;48.722;9.316;2023-01-16T07:13:05;1.80;99.90
70475;DHT22;57944;48.722;9.316;2023-01-16T07:15:36;1.90;99.90
70475;DHT22;57944;48.722;9.316;2023-01-16T07:18:19;1.80;99.90
70475;DHT22;57944;48.722;9.316;2023-01-16T07:21:03;1.80;99.90
70475;DHT22;57944;48.722;9.316;2023-01-16T07:23:50;1.90;99.90
70475;DHT22;57944;48.722;9.316;2023-01-16T07:26:26;1.80;99.90
70475;DHT22;57944;48.722;9.316;2023-01-16T07:28:57;1.80;99.90
70475;DHT22;57944;48.722;9.316;2023-01-16T07:31:30;1.90;99.90
70475;DHT22;57944;48.722;9.316;2023-01-16T07:34:03;2.00;99.90
70475;DHT22;57944;48.722;9.316;2023-01-16T07:36:33;2.00;99.90
70475;DHT22;57944;48.722;9.316;2023-01-16T07:39:03;2.00;99.90
70475;DHT22;57944;48.722;9.316;2023-01-16T07:41:35;1.90;99.90
70475;DHT22;57944;48.722;9.316;2023-01-16T07:44:23;2.00;99.90
70475;DHT22;57944;48.722;9.316;2023-01-16T07:46:53;2.00;99.90
70475;DHT22;57944;48.722;9.316;2023-01-16T07:49:23;2.10;99.90
70475;DHT22;57944;48.722;9.316;2023-01-16T07:51:53;2.20;99.90
70475;DHT22;57944;48.722;9.316;2023-01-16T07:54:23;2.30;99.90
70475;DHT22;57944;48.722;9.316;2023-01-16T07:56:56;2.40;99.90
70475;DHT22;57944;48.722;9.316;2023-01-16T07:59:26;2.50;99.90
70475;DHT22;57944;48.722;9.316;2023-01-16T08:01:56;2.50;99.90
70475;DHT22;57944;48.722;9.316;2023-01-16T08:04:26;2.70;99.90
70475;DHT22;57944;48.722;9.316;2023-01-16T08:06:58;2.70;99.90
70475;DHT22;57944;48.722;9.316;2023-01-16T08:09:28;2.80;99.90
70475;DHT22;57944;48.722;9.316;2023-01-16T08:12:00;2.90;99.90
70475;DHT22;57944;48.722;9.316;2023-01-16T08:14:30;3.00;99.90
70475;DHT22;57944;48.722;9.316;2023-01-16T08:17:00;3.00;99.90
70475;DHT22;57944;48.722;9.316;2023-01-16T08:19:31;3.10;99.90
70475;DHT22;57944;48.722;9.316;2023-01-16T08:22:01;3.10;99.90
70475;DHT22;57944;48.722;9.316;2023-01-16T08:24:31;3.20;99.90
70475;DHT22;57944;48.722;9.316;2023-01-16T08:27:04;3.30;99.90
70475;DHT22;57944;48.722;9.316;2023-01-16T08:29:35;3.30;99.90
70475;DHT22;57944;48.722;9.316;2023-01-16T08:32:05;3.30;99.90
70475;DHT22;57944;48.722;9.316;2023-01-16T08:34:36;3.50;99.90
70475;DHT22;57944;48.722;9.316;2023-01-16T08:37:06;3.60;99.90
70475;DHT22;57944;48.722;9.316;2023-01-16T08:39:37;3.70;99.90
70475;DHT22;57944;48.722;9.316;2023-01-16T08:42:10;3.80;99.90
70475;DHT22;57944;48.722;9.316;2023-01-16T08:44:52;3.80;99.90
70475;DHT22;57944;48.722;9.316;2023-01-16T08:47:37;3.90;99.90
70475;DHT22;57944;48.722;9.316;2023-01-16T08:50:20;4.00;99.90
70475;DHT22;57944;48.722;9.316;2023-01-16T08:53:03;4.00;99.90
70475;DHT22;57944;48.722;9.316;2023-01-16T08:55:33;4.20;99.90
70475;DHT22;57944;48.722;9.316;2023-01-16T08:58:08;4.20;99.90
70475;DHT22;57944;48.722;9.316;2023-01-16T09:00:38;4.20;99.90
70475;DHT22;57944;48.722;9.316;2023-01-16T09:03:08;4.20;99.90
70475;DHT22;57944;48.722;9.316;2023-01-16T09:05:38;4.20;99.90
70475;DHT22;57944;48.722;9.316;2023-01-16T09:08:09;4.20;99.90
70475;DHT22;57944;48.722;9.316;2023-01-16T09:10:39;4.30;99.90
70475;DHT22;57944;48.722;9.316;2023-01-16T09:13:32;4.40;99.90
70475;DHT22;57944;48.722;9.316;2023-01-16T09:16:14;4.40;99.90
70475;DHT22;57944;48.722;9.316;2023-01-16T09:18:45;4.50;99.90
70475;DHT22;57944;48.722;9.316;2023-01-16T09:21:15;4.50;99.90
70475;DHT22;57944;48.722;9.316;2023-01-16T09:23:46;4.50;99.90
70475;DHT22;57944;48.722;9.316;2023-01-16T09:26:16;4.60;99.90
70475;DHT22;57944;48.722;9.316;2023-01-16T09:28:49;4.70;99.90
70475;DHT22;57944;48.722;9.316;2023-01-16T09:31:19;4.90;99.90
70475;DHT22;57944;48.722;9.316;2023-01-16T09:33:49;5.10;99.90
70475;DHT22;57944;48.722;9.316;2023-01-16T09:36:21;5.20;99.90
70475;DHT22;57944;48.722;9.316;2023-01-16T09:38:51;5.00;99.90
70475;DHT22;57944;48.722;9.316;2023-01-16T09:41:21;5.10;99.90
70475;DHT22;57944;48.722;9.316;2023-01-16T09:44:21;5.00;99.90
70475;DHT22;57944;48.722;9.316;2023-01-16T09:46:52;5.00;99.90
70475;DHT22;57944;48.722;9.316;2023-01-16T09:49:25;5.10;99.90
70475;DHT22;57944;48.722;9.316;2023-01-16T09:52:02;5.10;99.90
70475;DHT22;57944;48.722;9.316;2023-01-16T09:54:52;5.10;99.90
70475;DHT22;57944;48.722;9.316;2023-01-16T09:57:44;5.30;99.90
70475;DHT22;57944;48.722;9.316;2023-01-16T10:00:40;5.40;99.90
70475;DHT22;57944;48.722;9.316;2023-01-16T10:03:11;5.70;99.90
70475;DHT22;57944;48.722;9.316;2023-01-16T10:05:45;5.80;99.90
70475;DHT22;57944;48.722;9.316;2023-01-16T10:08:25;6.00;99.90
70475;DHT22;57944;48.722;9.316;2023-01-16T10:11:08;6.00;99.90
70475;DHT22;57944;48.722;9.316;2023-01-16T10:14:01;6.10;99.90
70475;DHT22;57944;48.722;9.316;2023-01-16T10:16:54;6.10;99.90
70475;DHT22;57944;48.722;9.316;2023-01-16T10:19:45;5.90;99.90
70475;DHT22;57944;48.722;9.316;2023-01-16T10:22:40;5.90;99.90
70475;DHT22;57944;48.722;9.316;2023-01-16T10:25:23;5.90;99.90
70475;DHT22;57944;48.722;9.316;2023-01-16T10:28:09;5.90;99.90
70475;DHT22;57944;48.722;9.316;2023-01-16T10:30:54;5.80;99.90
70475;DHT22;57944;48.722;9.316;2023-01-16T10:33:34;5.80;99.90
70475;DHT22;57944;48.722;9.316;2023-01-16T10:36:20;5.80;99.90
70475;DHT22;57944;48.722;9.316;2023-01-16T10:38:55;5.70;99.90
70475;DHT22;57944;48.722;9.316;2023-01-16T10:41:28;5.60;99.90
70475;DHT22;57944;48.722;9.316;2023-01-16T10:44:23;5.60;99.90
70475;DHT22;57944;48.722;9.316;2023-01-16T10:47:13;5.70;99.90
70475;DHT22;57944;48.722;9.316;2023-01-16T10:50:00;5.80;99.90
70475;DHT22;57944;48.722;9.316;2023-01-16T10:52:31;5.90;99.90
70475;DHT22;57944;48.722;9.316;2023-01-16T10:55:03;5.90;99.90
70475;DHT22;57944;48.722;9.316;2023-01-16T10:57:34;6.00;99.90
70475;DHT22;57944;48.722;9.316;2023-01-16T11:00:13;6.00;99.90
70475;DHT22;57944;48.722;9.316;2023-01-16T11:02:51;6.10;99.90
70475;DHT22;57944;48.722;9.316;2023-01-16T11:05:27;6.10;99.90
70475;DHT22;57944;48.722;9.316;2023-01-16T11:08:05;6.20;99.90
70475;DHT22;57944;48.722;9.316;2023-01-16T11:10:42;6.20;99.90
70475;DHT22;57944;48.722;9.316;2023-01-16T11:13:15;6.30;99.90
70475;DHT22;57944;48.722;9.316;2023-01-16T11:16:03;6.30;99.90
70475;DHT22;57944;48.722;9.316;2023-01-16T11:18:47;6.30;99.90
70475;DHT22;57944;48.722;9.316;2023-01-16T11:21:25;6.30;99.90
70475;DHT22;57944;48.722;9.316;2023-01-16T11:23:59;6.20;99.90
70475;DHT22;57944;48.722;9.316;2023-01-16T11:26:30;6.00;99.90
70475;DHT22;57944;48.722;9.316;2023-01-16T11:29:00;5.90;99.90
70475;DHT22;57944;48.722;9.316;2023-01-16T11:31:31;5.90;99.90
70475;DHT22;57944;48.722;9.316;2023-01-16T11:34:03;5.90;99.90
70475;DHT22;57944;48.722;9.316;2023-01-16T11:36:44;5.80;99.90
70475;DHT22;57944;48.722;9.316;2023-01-16T11:39:19;5.90;99.90
70475;DHT22;57944;48.722;9.316;2023-01-16T11:41:53;5.90;99.90
70475;DHT22;57944;48.722;9.316;2023-01-16T11:44:27;5.80;99.90
70475;DHT22;57944;48.722;9.316;2023-01-16T11:47:17;5.70;99.90
70475;DHT22;57944;48.722;9.316;2023-01-16T11:49:53;5.50;99.90
70475;DHT22;57944;48.722;9.316;2023-01-16T11:52:26;5.50;99.90
70475;DHT22;57944;48.722;9.316;2023-01-16T11:55:05;5.40;99.90
70475;DHT22;57944;48.722;9.316;2023-01-16T11:57:46;5.50;99.90
70475;DHT22;57944;48.722;9.316;2023-01-16T12:00:39;5.70;99.90
70475;DHT22;57944;48.722;9.316;2023-01-16T12:03:44;6.00;99.90
70475;DHT22;57944;48.722;9.316;2023-01-16T12:09:36;6.30;99.90
70475;DHT22;57944;48.722;9.316;2023-01-16T12:12:22;6.40;99.90
70475;DHT22;57944;48.722;9.316;2023-01-16T12:15:17;6.60;99.90
70475;DHT22;57944;48.722;9.316;2023-01-16T12:18:02;6.60;99.90
70475;DHT22;57944;48.722;9.316;2023-01-16T12:20:46;6.70;99.90
70475;DHT22;57944;48.722;9.316;2023-01-16T12:23:41;6.80;99.90
70475;DHT22;57944;48.722;9.316;2023-01-16T12:26:29;6.80;99.90
70475;DHT22;57944;48.722;9.316;2023-01-16T12:29:13;6.90;99.90
70475;DHT22;57944;48.722;9.316;2023-01-16T12:32:07;6.90;99.90
70475;DHT22;57944;48.722;9.316;2023-01-16T12:35:06;7.00;99.90
70475;DHT22;57944;48.722;9.316;2023-01-16T12:38:07;7.10;99.90
70475;DHT22;57944;48.722;9.316;2023-01-16T12:41:02;7.10;99.90
70475;DHT22;57944;48.722;9.316;2023-01-16T12:47:09;7.30;99.90
70475;DHT22;57944;48.722;9.316;2023-01-16T12:50:02;7.30;99.90
70475;DHT22;57944;48.722;9.316;2023-01-16T12:52:52;7.40;99.90
70475;DHT22;57944;48.722;9.316;2023-01-16T12:55:40;7.40;99.90
70475;DHT22;57944;48.722;9.316;2023-01-16T12:58:33;7.50;99.90
70475;DHT22;57944;48.722;9.316;2023-01-16T13:01:13;7.50;99.90
70475;DHT22;57944;48.722;9.316;2023-01-16T13:03:52;7.70;99.90
70475;DHT22;57944;48.722;9.316;2023-01-16T13:06:36;7.60;99.90
70475;DHT22;57944;48.722;9.316;2023-01-16T13:09:14;7.60;99.90
70475;DHT22;57944;48.722;9.316;2023-01-16T13:11:59;7.50;99.90
70475;DHT22;57944;48.722;9.316;2023-01-16T13:14:51;7.50;99.90
70475;DHT22;57944;48.722;9.316;2023-01-16T13:17:41;7.60;99.90
70475;DHT22;57944;48.722;9.316;2023-01-16T13:20:17;7.80;99.90
70475;DHT22;57944;48.722;9.316;2023-01-16T13:22:51;7.80;99.90
70475;DHT22;57944;48.722;9.316;2023-01-16T13:25:30;7.60;99.90
70475;DHT22;57944;48.722;9.316;2023-01-16T13:28:07;7.70;99.90
70475;DHT22;57944;48.722;9.316;2023-01-16T13:30:48;7.60;99.90
70475;DHT22;57944;48.722;9.316;2023-01-16T13:33:29;7.70;99.90
70475;DHT22;57944;48.722;9.316;2023-01-16T13:36:10;7.80;99.90
70475;DHT22;57944;48.722;9.316;2023-01-16T13:39:02;7.70;99.90
70475;DHT22;57944;48.722;9.316;2023-01-16T13:41:54;7.70;99.90
70475;DHT22;57944;48.722;9.316;2023-01-16T13:44:28;7.80;99.90
70475;DHT22;57944;48.722;9.316;2023-01-16T13:47:17;7.60;99.90
70475;DHT22;57944;48.722;9.316;2023-01-16T13:50:03;7.50;99.90
70475;DHT22;57944;48.722;9.316;2023-01-16T13:52:41;7.50;99.90
70475;DHT22;57944;48.722;9.316;2023-01-16T13:55:24;7.40;99.90
70475;DHT22;57944;48.722;9.316;2023-01-16T13:58:07;7.40;99.90
70475;DHT22;57944;48.722;9.316;2023-01-16T14:00:40;7.40;99.90
70475;DHT22;57944;48.722;9.316;2023-01-16T14:03:21;7.30;99.90
70475;DHT22;57944;48.722;9.316;2023-01-16T14:06:16;7.30;99.90
70475;DHT22;57944;48.722;9.316;2023-01-16T14:08:50;7.40;99.90
70475;DHT22;57944;48.722;9.316;2023-01-16T14:11:37;7.30;99.90
70475;DHT22;57944;48.722;9.316;2023-01-16T14:14:46;7.20;99.90
70475;DHT22;57944;48.722;9.316;2023-01-16T14:21:04;6.90;99.90
70475;DHT22;57944;48.722;9.316;2023-01-16T14:23:46;6.70;99.90
70475;DHT22;57944;48.722;9.316;2023-01-16T14:26:38;6.70;99.90
70475;DHT22;57944;48.722;9.316;2023-01-16T14:29:17;6.70;99.90
70475;DHT22;57944;48.722;9.316;2023-01-16T14:31:53;6.80;99.90
70475;DHT22;57944;48.722;9.316;2023-01-16T14:34:28;6.80;99.90
70475;DHT22;57944;48.722;9.316;2023-01-16T14:37:10;6.70;99.90
70475;DHT22;57944;48.722;9.316;2023-01-16T14:39:48;6.60;99.90
70475;DHT22;57944;48.722;9.316;2023-01-16T14:42:23;6.40;99.90
70475;DHT22;57944;48.722;9.316;2023-01-16T14:45:23;6.20;99.90
70475;DHT22;57944;48.722;9.316;2023-01-16T14:48:12;6.30;99.90
70475;DHT22;57944;48.722;9.316;2023-01-16T14:51:28;6.40;99.90
70475;DHT22;57944;48.722;9.316;2023-01-16T14:54:18;6.50;99.90
70475;DHT22;57944;48.722;9.316;2023-01-16T14:57:08;6.50;99.90
70475;DHT22;57944;48.722;9.316;2023-01-16T14:59:45;6.50;99.90
70475;DHT22;57944;48.722;9.316;2023-01-16T15:02:26;6.50;99.90
70475;DHT22;57944;48.722;9.316;2023-01-16T15:05:06;6.50;99.90
70475;DHT22;57944;48.722;9.316;2023-01-16T15:07:44;6.40;99.90
70475;DHT22;57944;48.722;9.316;2023-01-16T15:10:25;6.10;99.90
70475;DHT22;57944;48.722;9.316;2023-01-16T15:13:13;5.90;99.90
70475;DHT22;57944;48.722;9.316;2023-01-16T15:15:48;5.60;99.90
70475;DHT22;57944;48.722;9.316;2023-01-16T15:18:20;5.50;99.90
70475;DHT22;57944;48.722;9.316;2023-01-16T15:21:07;5.30;99.90
70475;DHT22;57944;48.722;9.316;2023-01-16T15:23:55;5.20;99.90
70475;DHT22;57944;48.722;9.316;2023-01-16T15:26:42;5.10;99.90
70475;DHT22;57944;48.722;9.316;2023-01-16T15:29:49;5.00;99.90
70475;DHT22;57944;48.722;9.316;2023-01-16T15:32:26;5.00;99.90
70475;DHT22;57944;48.722;9.316;2023-01-16T15:35:05;5.00;99.90
70475;DHT22;57944;48.722;9.316;2023-01-16T15:37:48;5.10;99.90
70475;DHT22;57944;48.722;9.316;2023-01-16T15:40:22;5.30;99.90
70475;DHT22;57944;48.722;9.316;2023-01-16T15:42:57;5.40;99.90
70475;DHT22;57944;48.722;9.316;2023-01-16T15:45:46;5.50;99.90
70475;DHT22;57944;48.722;9.316;2023-01-16T15:48:41;5.30;99.90
70475;DHT22;57944;48.722;9.316;2023-01-16T15:51:37;5.10;99.90
70475;DHT22;57944;48.722;9.316;2023-01-16T15:54:12;4.90;99.90
70475;DHT22;57944;48.722;9.316;2023-01-16T15:56:47;4.80;99.90
70475;DHT22;57944;48.722;9.316;2023-01-16T15:59:26;4.70;99.90
70475;DHT22;57944;48.722;9.316;2023-01-16T16:02:17;4.60;99.90
70475;DHT22;57944;48.722;9.316;2023-01-16T16:04:51;4.50;99.90
70475;DHT22;57944;48.722;9.316;2023-01-16T16:07:23;4.50;99.90
70475;DHT22;57944;48.722;9.316;2023-01-16T16:09:56;4.40;99.90
70475;DHT22;57944;48.722;9.316;2023-01-16T16:12:29;4.30;99.90
70475;DHT22;57944;48.722;9.316;2023-01-16T16:15:19;4.40;99.90
70475;DHT22;57944;48.722;9.316;2023-01-16T16:18:19;4.30;99.90
70475;DHT22;57944;48.722;9.316;2023-01-16T16:20:50;4.20;99.90
70475;DHT22;57944;48.722;9.316;2023-01-16T16:23:33;4.20;99.90
70475;DHT22;57944;48.722;9.316;2023-01-16T16:26:04;4.10;99.90
70475;DHT22;57944;48.722;9.316;2023-01-16T16:28:42;4.10;99.90
70475;DHT22;57944;48.722;9.316;2023-01-16T16:31:20;4.00;99.90
70475;DHT22;57944;48.722;9.316;2023-01-16T16:33:56;3.90;99.90
70475;DHT22;57944;48.722;9.316;2023-01-16T16:36:29;3.80;99.90
70475;DHT22;57944;48.722;9.316;2023-01-16T16:39:25;3.70;99.90
70475;DHT22;57944;48.722;9.316;2023-01-16T16:41:58;3.60;99.90
70475;DHT22;57944;48.722;9.316;2023-01-16T16:44:44;3.60;99.90
70475;DHT22;57944;48.722;9.316;2023-01-16T16:47:26;3.70;99.90
70475;DHT22;57944;48.722;9.316;2023-01-16T16:49:58;3.70;99.90
70475;DHT22;57944;48.722;9.316;2023-01-16T16:52:35;3.70;99.90
70475;DHT22;57944;48.722;9.316;2023-01-16T16:55:25;3.80;99.90
70475;DHT22;57944;48.722;9.316;2023-01-16T16:57:59;3.90;99.90
70475;DHT22;57944;48.722;9.316;2023-01-16T17:00:34;3.90;99.90
70475;DHT22;57944;48.722;9.316;2023-01-16T17:03:11;4.00;99.90